createdAt,value
2022-07-26T00:01:48.905Z,53.22
2022-07-26T00:04:16.519Z,52.92
2022-07-26T00:06:44.002Z,53.37
2022-07-26T00:09:11.698Z,53.09
2022-07-26T00:11:40.587Z,53.13
2022-07-26T00:14:08.188Z,52.96
2022-07-26T00:16:35.766Z,53.11
2022-07-26T00:19:03.475Z,53.11
2022-07-26T00:21:31.381Z,53.04
2022-07-26T00:23:58.850Z,53.71
2022-07-26T00:26:26.307Z,53.65
2022-07-26T00:28:55.062Z,52.97
2022-07-26T00:31:22.586Z,53.01
2022-07-26T00:33:50.071Z,53.53
2022-07-26T00:36:17.518Z,53.07
2022-07-26T00:38:44.972Z,53.11
2022-07-26T00:41:12.422Z,53.32
2022-07-26T00:43:46.686Z,53.25
2022-07-26T00:46:15.516Z,53.60
2022-07-26T00:48:43.058Z,53.40
2022-07-26T00:51:10.573Z,53.15
2022-07-26T00:53:38.007Z,53.20
2022-07-26T00:56:06.136Z,53.21
2022-07-26T00:58:33.777Z,53.40
2022-07-26T01:01:01.275Z,53.41
2022-07-26T01:03:36.474Z,53.36
2022-07-26T01:06:07.317Z,53.54
2022-07-26T01:08:34.784Z,53.31
2022-07-26T01:11:02.255Z,53.84
2022-07-26T01:13:33.229Z,53.57
2022-07-26T01:16:03.118Z,53.91
2022-07-26T01:18:31.942Z,54.23
2022-07-26T01:20:59.392Z,54.61
2022-07-26T01:23:28.106Z,53.86
2022-07-26T01:25:56.471Z,54.36
2022-07-26T01:28:23.980Z,53.55
2022-07-26T01:30:51.458Z,53.81
2022-07-26T01:33:18.981Z,54.02
2022-07-26T01:35:46.440Z,54.15
2022-07-26T01:38:13.876Z,53.68
2022-07-26T01:40:42.608Z,53.99
2022-07-26T01:43:10.052Z,54.06
2022-07-26T01:45:38.058Z,54.07
2022-07-26T01:48:06.191Z,54.06
2022-07-26T01:50:33.645Z,54.41
2022-07-26T01:53:01.091Z,54.15
2022-07-26T01:55:28.530Z,54.29
2022-07-26T01:57:57.267Z,54.35
2022-07-26T02:00:24.739Z,54.55
2022-07-26T02:02:52.339Z,54.80
2022-07-26T02:05:19.881Z,55.08
2022-07-26T02:07:47.333Z,54.93
2022-07-26T02:10:16.033Z,54.86
2022-07-26T02:12:43.469Z,55.12
2022-07-26T02:15:13.276Z,55.36
2022-07-26T02:17:40.764Z,55.08
2022-07-26T02:20:09.077Z,55.46
2022-07-26T02:22:36.510Z,54.86
2022-07-26T02:25:05.410Z,55.24
2022-07-26T02:27:33.378Z,55.40
2022-07-26T02:30:01.890Z,55.22
2022-07-26T02:32:30.658Z,55.41
2022-07-26T02:34:58.101Z,55.54
2022-07-26T02:37:25.532Z,55.31
2022-07-26T02:39:53.341Z,55.52
2022-07-26T02:42:20.783Z,55.55
2022-07-26T02:44:48.217Z,55.70
2022-07-26T02:47:15.649Z,55.64
2022-07-26T02:49:44.384Z,55.53
2022-07-26T02:52:11.828Z,55.59
2022-07-26T02:54:39.282Z,55.75
2022-07-26T02:57:06.765Z,55.62
2022-07-26T02:59:34.218Z,55.75
2022-07-26T03:02:01.774Z,55.55
2022-07-26T03:04:29.279Z,55.12
2022-07-26T03:06:58.011Z,54.97
2022-07-26T03:09:25.465Z,55.40
2022-07-26T03:11:53.193Z,54.76
2022-07-26T03:14:20.623Z,54.74
2022-07-26T03:16:48.068Z,54.85
2022-07-26T03:19:15.525Z,54.29
2022-07-26T03:21:42.967Z,55.19
2022-07-26T03:24:11.902Z,54.85
2022-07-26T03:26:39.496Z,55.33
2022-07-26T03:29:06.929Z,55.13
2022-07-26T03:31:36.126Z,55.40
2022-07-26T03:34:03.909Z,55.43
2022-07-26T03:36:31.423Z,55.22
2022-07-26T03:38:58.863Z,55.57
2022-07-26T03:41:27.601Z,55.46
2022-07-26T03:43:55.037Z,55.24
2022-07-26T03:46:22.511Z,55.47
2022-07-26T03:48:50.060Z,55.49
2022-07-26T03:51:17.559Z,55.47
2022-07-26T03:53:45.001Z,55.44
2022-07-26T03:56:31.715Z,55.37
2022-07-26T03:59:01.091Z,55.50
2022-07-26T04:01:28.648Z,55.49
2022-07-26T04:03:56.136Z,55.37
2022-07-26T04:06:23.640Z,55.73
2022-07-26T04:08:51.392Z,55.56
2022-07-26T04:11:18.845Z,55.45
2022-07-26T04:13:46.308Z,55.34
2022-07-26T04:16:15.441Z,55.40
2022-07-26T04:18:43.267Z,55.43
2022-07-26T04:21:10.830Z,55.31
2022-07-26T04:23:38.257Z,55.08
2022-07-26T04:26:05.833Z,55.07
2022-07-26T04:28:33.339Z,55.25
2022-07-26T04:31:00.899Z,55.19
2022-07-26T04:33:29.677Z,54.98
2022-07-26T04:35:57.134Z,55.20
2022-07-26T04:38:24.584Z,54.96
2022-07-26T04:40:52.390Z,54.84
2022-07-26T04:43:20.152Z,55.03
2022-07-26T04:45:47.680Z,54.99
2022-07-26T04:48:15.358Z,54.65
2022-07-26T04:50:44.297Z,54.85
2022-07-26T04:53:11.793Z,54.88
2022-07-26T04:55:39.241Z,55.10
2022-07-26T04:58:06.697Z,55.08
2022-07-26T05:00:35.078Z,54.93
2022-07-26T05:03:14.353Z,55.08
2022-07-26T05:05:41.973Z,54.87
2022-07-26T05:08:10.705Z,55.04
2022-07-26T05:10:38.436Z,55.12
2022-07-26T05:13:06.588Z,55.05
2022-07-26T05:15:35.402Z,55.18
2022-07-26T05:18:06.952Z,55.06
2022-07-26T05:20:34.810Z,54.90
2022-07-26T05:23:02.260Z,55.11
2022-07-26T05:25:31.002Z,54.91
2022-07-26T05:27:58.424Z,54.90
2022-07-26T05:30:25.985Z,54.93
2022-07-26T05:32:53.497Z,55.04
2022-07-26T05:35:20.989Z,55.19
2022-07-26T05:37:48.416Z,55.04
2022-07-26T05:40:15.863Z,54.99
2022-07-26T05:42:44.856Z,54.89
2022-07-26T05:45:12.388Z,55.18
2022-07-26T05:47:39.825Z,55.01
2022-07-26T05:50:08.219Z,55.15
2022-07-26T05:52:35.717Z,54.76
2022-07-26T05:55:03.154Z,55.11
2022-07-26T05:57:30.607Z,55.05
2022-07-26T05:59:59.341Z,54.93
2022-07-26T06:02:26.834Z,55.02
2022-07-26T06:04:54.334Z,54.86
2022-07-26T06:07:21.811Z,54.77
2022-07-26T06:09:49.297Z,54.49
2022-07-26T06:12:16.736Z,54.63
2022-07-26T06:14:44.180Z,54.66
2022-07-26T06:17:12.950Z,54.50
2022-07-26T06:19:44.295Z,54.47
2022-07-26T06:22:29.653Z,54.39
2022-07-26T06:24:57.089Z,54.48
2022-07-26T06:27:24.557Z,54.18
2022-07-26T06:29:52.629Z,54.14
2022-07-26T06:32:21.363Z,54.01
2022-07-26T06:34:48.825Z,53.90
2022-07-26T06:37:16.774Z,54.04
2022-07-26T06:39:44.215Z,54.00
2022-07-26T06:42:11.654Z,53.72
2022-07-26T06:44:40.608Z,53.62
2022-07-26T06:47:08.062Z,53.58
2022-07-26T06:49:36.882Z,53.02
2022-07-26T06:52:04.592Z,53.21
2022-07-26T06:54:32.033Z,53.45
2022-07-26T06:56:59.467Z,53.32
2022-07-26T06:59:26.949Z,52.90
2022-07-26T07:01:59.279Z,53.07
2022-07-26T07:04:28.819Z,53.17
2022-07-26T07:07:02.266Z,52.80
2022-07-26T07:09:32.809Z,53.10
2022-07-26T07:12:08.291Z,52.70
2022-07-26T07:14:38.023Z,52.70
2022-07-26T07:17:12.933Z,52.59
2022-07-26T07:19:41.475Z,52.55
2022-07-26T07:22:12.026Z,52.34
2022-07-26T07:24:40.022Z,52.11
2022-07-26T07:27:07.462Z,52.14
2022-07-26T07:29:34.951Z,52.04
2022-07-26T07:32:03.388Z,52.00
2022-07-26T07:34:31.458Z,52.08
2022-07-26T07:36:58.916Z,51.90
2022-07-26T07:39:38.367Z,51.92
2022-07-26T07:42:06.389Z,51.70
2022-07-26T07:44:33.856Z,51.79
2022-07-26T07:47:01.436Z,52.15
2022-07-26T07:49:29.112Z,51.46
2022-07-26T07:51:56.633Z,51.51
2022-07-26T07:54:24.084Z,51.06
2022-07-26T07:56:56.184Z,51.07
2022-07-26T07:59:23.657Z,50.98
2022-07-26T08:01:51.193Z,51.41
2022-07-26T08:04:18.878Z,51.41
2022-07-26T08:06:50.992Z,51.74
2022-07-26T08:09:19.086Z,50.89
2022-07-26T08:11:50.818Z,51.19
2022-07-26T08:14:19.984Z,51.00
2022-07-26T08:16:47.567Z,50.44
2022-07-26T08:19:15.671Z,50.58
2022-07-26T08:21:46.030Z,50.46
2022-07-26T08:24:14.425Z,50.39
2022-07-26T08:26:41.923Z,50.58
2022-07-26T08:29:09.474Z,50.13
2022-07-26T08:31:38.435Z,50.28
2022-07-26T08:34:06.014Z,50.28
2022-07-26T08:36:33.537Z,49.82
2022-07-26T08:39:01.037Z,50.64
2022-07-26T08:41:28.502Z,50.27
2022-07-26T08:43:55.977Z,51.04
2022-07-26T08:46:28.143Z,50.53
2022-07-26T08:48:57.508Z,50.07
2022-07-26T08:51:25.609Z,50.86
2022-07-26T08:53:53.488Z,50.29
2022-07-26T08:56:20.957Z,50.55
2022-07-26T08:58:48.468Z,50.71
2022-07-26T09:01:16.048Z,50.35
2022-07-26T09:03:43.663Z,50.20
2022-07-26T09:06:17.015Z,50.37
2022-07-26T09:08:44.833Z,50.31
2022-07-26T09:11:32.042Z,50.18
2022-07-26T09:14:00.619Z,50.01
2022-07-26T09:16:28.378Z,49.89
2022-07-26T09:18:56.073Z,49.78
2022-07-26T09:21:31.920Z,49.94
2022-07-26T09:23:59.566Z,49.40
2022-07-26T09:26:27.093Z,49.55
2022-07-26T09:29:05.800Z,49.60
2022-07-26T09:31:33.547Z,49.79
2022-07-26T09:34:01.031Z,49.44
2022-07-26T09:36:28.608Z,49.05
2022-07-26T09:38:59.278Z,49.26
2022-07-26T09:41:27.775Z,48.99
2022-07-26T09:43:55.502Z,49.38
2022-07-26T09:46:23.635Z,49.24
2022-07-26T09:51:40.151Z,49.12
2022-07-26T09:54:09.586Z,49.26
2022-07-26T09:56:43.251Z,49.39
2022-07-26T09:59:10.752Z,49.13
2022-07-26T10:01:38.240Z,48.88
2022-07-26T10:04:05.899Z,48.85
2022-07-26T10:06:33.515Z,48.71
2022-07-26T10:09:01.309Z,48.58
2022-07-26T10:11:30.379Z,48.52
2022-07-26T10:13:58.956Z,48.89
2022-07-26T10:16:30.316Z,48.71
2022-07-26T10:19:00.075Z,48.42
2022-07-26T10:21:29.684Z,48.33
2022-07-26T10:23:57.924Z,48.42
2022-07-26T10:26:45.397Z,48.38
2022-07-26T10:29:20.131Z,48.42
2022-07-26T10:31:49.459Z,48.10
2022-07-26T10:34:30.850Z,48.21
2022-07-26T10:36:58.605Z,48.29
2022-07-26T10:39:26.286Z,48.26
2022-07-26T10:42:00.103Z,48.67
2022-07-26T10:44:28.332Z,48.55
2022-07-26T10:46:56.969Z,47.99
2022-07-26T10:49:29.479Z,48.42
2022-07-26T10:52:09.583Z,48.20
2022-07-26T10:55:04.683Z,47.67
2022-07-26T10:57:33.974Z,48.36
2022-07-26T11:00:01.474Z,47.86
2022-07-26T11:02:32.220Z,48.00
2022-07-26T11:05:00.373Z,48.03
2022-07-26T11:07:27.834Z,47.72
2022-07-26T11:09:56.471Z,47.09
2022-07-26T11:12:24.198Z,47.73
2022-07-26T11:14:53.204Z,47.36
2022-07-26T11:17:24.352Z,47.64
2022-07-26T11:19:51.831Z,47.24
2022-07-26T11:22:19.290Z,47.72
2022-07-26T11:24:46.747Z,47.15
2022-07-26T11:27:14.195Z,47.25
2022-07-26T11:29:41.782Z,47.49
2022-07-26T11:32:19.386Z,46.95
2022-07-26T11:34:48.126Z,47.25
2022-07-26T11:37:15.614Z,46.53
2022-07-26T11:39:43.059Z,46.61
2022-07-26T11:42:11.618Z,46.54
2022-07-26T11:44:39.110Z,46.43
2022-07-26T11:47:13.617Z,46.39
2022-07-26T11:50:00.538Z,47.04
2022-07-26T11:52:30.163Z,46.60
2022-07-26T11:54:57.609Z,47.16
2022-07-26T11:57:28.756Z,46.83
2022-07-26T11:59:56.197Z,46.98
2022-07-26T12:02:23.752Z,46.83
2022-07-26T12:05:12.766Z,46.51
2022-07-26T12:07:40.325Z,46.41
2022-07-26T12:10:08.625Z,46.20
2022-07-26T12:12:36.078Z,46.35
2022-07-26T12:15:04.746Z,46.05
2022-07-26T12:17:35.020Z,46.03
2022-07-26T12:20:15.013Z,46.21
2022-07-26T12:22:53.935Z,45.90
2022-07-26T12:25:25.542Z,46.86
2022-07-26T12:27:53.079Z,46.12
2022-07-26T12:30:20.635Z,46.34
2022-07-26T12:32:48.918Z,46.39
2022-07-26T12:35:25.169Z,46.73
2022-07-26T12:37:53.554Z,46.84
2022-07-26T12:40:21.802Z,47.49
2022-07-26T12:43:00.496Z,47.88
2022-07-26T12:45:29.514Z,47.83
2022-07-26T12:47:57.912Z,48.29
2022-07-26T12:50:28.088Z,48.56
2022-07-26T12:53:00.393Z,48.28
2022-07-26T12:55:27.822Z,48.55
2022-07-26T12:57:57.064Z,48.35
2022-07-26T13:00:24.743Z,48.80
2022-07-26T13:02:54.716Z,48.87
2022-07-26T13:05:22.199Z,48.68
2022-07-26T13:07:52.455Z,48.79
2022-07-26T13:10:33.087Z,48.87
2022-07-26T13:13:01.365Z,49.00
2022-07-26T13:15:36.087Z,49.17
2022-07-26T13:18:05.404Z,49.63
2022-07-26T13:20:32.928Z,49.72
2022-07-26T13:23:02.245Z,49.89
2022-07-26T13:25:33.516Z,49.96
2022-07-26T13:28:06.345Z,49.88
2022-07-26T13:30:33.930Z,50.05
2022-07-26T13:33:01.480Z,49.72
2022-07-26T13:35:28.970Z,49.81
2022-07-26T13:37:56.445Z,50.08
2022-07-26T13:40:30.713Z,50.01
2022-07-26T13:42:58.877Z,49.80
2022-07-26T13:45:28.745Z,49.90
2022-07-26T13:47:57.024Z,49.84
2022-07-26T13:50:26.407Z,49.92
2022-07-26T13:52:54.669Z,49.83
2022-07-26T13:55:22.572Z,49.83
2022-07-26T13:57:57.033Z,49.89
2022-07-26T14:00:25.808Z,49.91
2022-07-26T14:02:53.393Z,49.92
2022-07-26T14:05:21.172Z,49.82
2022-07-26T14:07:48.627Z,49.88
2022-07-26T14:10:16.187Z,50.20
2022-07-26T14:12:43.661Z,50.25
2022-07-26T14:15:18.073Z,50.12
2022-07-26T14:17:48.853Z,49.87
2022-07-26T14:20:17.413Z,49.84
2022-07-26T14:22:44.979Z,49.90
2022-07-26T14:25:12.489Z,49.85
2022-07-26T14:27:39.984Z,49.92
2022-07-26T14:30:07.993Z,50.16
2022-07-26T14:32:36.736Z,49.86
2022-07-26T14:35:04.448Z,49.95
2022-07-26T14:37:43.307Z,50.18
2022-07-26T14:40:15.227Z,50.05
2022-07-26T14:42:42.707Z,50.24
2022-07-26T14:45:10.503Z,50.61
2022-07-26T14:47:39.275Z,50.35
2022-07-26T14:50:08.136Z,50.36
2022-07-26T14:52:37.634Z,50.70
2022-07-26T14:55:06.043Z,50.50
2022-07-26T14:57:33.494Z,50.37
2022-07-26T15:00:06.852Z,50.62
2022-07-26T15:02:34.398Z,50.68
2022-07-26T15:05:03.194Z,50.68
2022-07-26T15:07:30.636Z,50.57
2022-07-26T15:09:58.088Z,50.93
2022-07-26T15:12:25.520Z,50.83
2022-07-26T15:14:52.990Z,50.97
2022-07-26T15:17:21.137Z,50.87
2022-07-26T15:19:48.590Z,50.73
2022-07-26T15:22:17.356Z,50.75
2022-07-26T15:24:44.823Z,50.78
2022-07-26T15:27:12.278Z,50.79
2022-07-26T15:29:39.731Z,50.86
2022-07-26T15:32:07.755Z,50.64
2022-07-26T15:34:35.313Z,51.06
2022-07-26T15:37:02.782Z,50.82
2022-07-26T15:39:31.525Z,51.02
2022-07-26T15:42:05.464Z,50.78
2022-07-26T15:44:35.165Z,50.83
2022-07-26T15:47:02.615Z,50.54
2022-07-26T15:49:31.430Z,50.50
2022-07-26T15:51:58.861Z,50.65
2022-07-26T15:54:26.316Z,50.52
2022-07-26T15:56:55.041Z,50.55
2022-07-26T15:59:22.487Z,50.42
2022-07-26T16:01:50.316Z,50.22
2022-07-26T16:04:17.848Z,50.55
2022-07-26T16:06:45.360Z,50.14
2022-07-26T16:09:17.238Z,50.34
2022-07-26T16:11:51.607Z,50.44
2022-07-26T16:14:20.327Z,50.07
2022-07-26T16:16:47.888Z,50.04
2022-07-26T16:19:15.695Z,50.20
2022-07-26T16:21:43.375Z,49.89
2022-07-26T16:24:10.848Z,49.63
2022-07-26T16:26:38.315Z,49.73
2022-07-26T16:29:05.897Z,49.85
2022-07-26T16:31:34.680Z,49.54
2022-07-26T16:34:02.142Z,49.89
2022-07-26T16:36:29.630Z,49.38
2022-07-26T16:38:57.107Z,49.47
2022-07-26T16:41:24.578Z,49.25
2022-07-26T16:43:52.051Z,49.27
2022-07-26T16:46:19.555Z,49.66
2022-07-26T16:48:48.323Z,49.41
2022-07-26T16:51:16.719Z,49.18
2022-07-26T16:53:45.199Z,49.32
2022-07-26T16:56:12.780Z,49.34
2022-07-26T16:58:40.366Z,49.31
2022-07-26T17:01:07.873Z,49.28
2022-07-26T17:03:35.458Z,49.31
2022-07-26T17:06:06.628Z,49.21
2022-07-26T17:08:34.476Z,49.25
2022-07-26T17:11:01.945Z,49.24
2022-07-26T17:13:29.410Z,49.23
2022-07-26T17:15:56.917Z,49.36
2022-07-26T17:18:24.407Z,48.99
2022-07-26T17:20:51.874Z,48.89
2022-07-26T17:23:20.716Z,48.81
2022-07-26T17:25:48.173Z,48.94
2022-07-26T17:28:15.621Z,48.39
2022-07-26T17:30:43.094Z,48.69
2022-07-26T17:33:10.750Z,47.85
2022-07-26T17:35:38.272Z,48.31
2022-07-26T17:38:05.810Z,48.01
2022-07-26T17:40:36.542Z,47.90
2022-07-26T17:43:06.030Z,47.37
2022-07-26T17:45:33.492Z,47.66
2022-07-26T17:48:05.897Z,47.13
2022-07-26T17:50:36.889Z,47.49
2022-07-26T17:53:05.195Z,46.95
2022-07-26T17:55:32.682Z,47.42
2022-07-26T17:58:01.446Z,47.00
2022-07-26T18:00:29.561Z,46.90
2022-07-26T18:02:57.177Z,47.27
2022-07-26T18:05:30.352Z,46.15
2022-07-26T18:08:00.832Z,47.05
2022-07-26T18:10:28.414Z,46.36
2022-07-26T18:12:55.897Z,46.78
2022-07-26T18:15:24.640Z,46.75
2022-07-26T18:17:52.094Z,46.78
2022-07-26T18:20:19.600Z,46.86
2022-07-26T18:22:50.174Z,46.53
2022-07-26T18:25:17.993Z,45.99
2022-07-26T18:27:45.474Z,46.25
2022-07-26T18:30:13.005Z,45.77
2022-07-26T18:32:41.732Z,46.22
2022-07-26T18:35:09.204Z,46.23
2022-07-26T18:37:36.667Z,45.93
2022-07-26T18:40:05.233Z,46.04
2022-07-26T18:42:32.655Z,45.69
2022-07-26T18:45:00.099Z,46.04
2022-07-26T18:47:27.571Z,46.03
2022-07-26T18:49:56.340Z,45.75
2022-07-26T18:52:28.923Z,45.81
2022-07-26T18:55:01.762Z,45.76
2022-07-26T18:57:29.218Z,46.08
2022-07-26T18:59:56.675Z,46.22
2022-07-26T19:02:24.132Z,46.04
2022-07-26T19:04:51.577Z,45.84
2022-07-26T19:07:20.327Z,46.18
2022-07-26T19:09:47.758Z,45.99
2022-07-26T19:12:15.226Z,45.67
2022-07-26T19:14:42.657Z,45.51
2022-07-26T19:17:11.642Z,45.67
2022-07-26T19:19:39.211Z,45.61
2022-07-26T19:22:06.683Z,45.72
2022-07-26T19:24:43.257Z,45.47
2022-07-26T19:27:11.215Z,45.63
2022-07-26T19:29:38.772Z,45.56
2022-07-26T19:32:06.901Z,45.73
2022-07-26T19:34:34.383Z,45.69
2022-07-26T19:37:01.959Z,45.50
2022-07-26T19:39:29.460Z,45.52
2022-07-26T19:41:58.259Z,45.66
2022-07-26T19:44:25.745Z,45.75
2022-07-26T19:46:57.529Z,45.64
2022-07-26T19:49:25.637Z,45.34
2022-07-26T19:51:53.190Z,45.49
2022-07-26T19:54:21.270Z,45.42
2022-07-26T19:56:48.796Z,44.94
2022-07-26T19:59:23.088Z,45.40
2022-07-26T20:01:52.879Z,45.60
2022-07-26T20:04:20.599Z,45.21
2022-07-26T20:06:48.133Z,44.98
2022-07-26T20:09:15.631Z,44.99
2022-07-26T20:11:43.157Z,45.10
2022-07-26T20:14:10.617Z,44.75
2022-07-26T20:16:39.412Z,44.91
2022-07-26T20:19:06.979Z,44.39
2022-07-26T20:21:34.543Z,44.81
2022-07-26T20:24:02.080Z,44.85
2022-07-26T20:26:29.552Z,44.70
2022-07-26T20:28:58.027Z,44.70
2022-07-26T20:31:25.566Z,44.80
2022-07-26T20:33:54.360Z,44.54
2022-07-26T20:36:21.816Z,44.60
2022-07-26T20:38:51.597Z,44.83
2022-07-26T20:41:19.344Z,44.88
2022-07-26T20:43:48.357Z,44.48
2022-07-26T20:46:15.855Z,44.65
2022-07-26T20:48:43.438Z,44.03
2022-07-26T20:51:13.404Z,43.85
2022-07-26T20:53:41.576Z,44.25
2022-07-26T20:56:10.241Z,44.22
2022-07-26T20:58:37.711Z,43.50
2022-07-26T21:01:05.216Z,43.05
2022-07-26T21:03:32.717Z,43.22
2022-07-26T21:06:00.397Z,43.83
2022-07-26T21:08:29.137Z,43.97
2022-07-26T21:10:56.761Z,44.18
2022-07-26T21:13:24.235Z,43.36
2022-07-26T21:15:54.137Z,44.01
2022-07-26T21:18:21.616Z,43.30
2022-07-26T21:20:49.113Z,43.35
2022-07-26T21:23:18.535Z,43.15
2022-07-26T21:25:47.887Z,43.23
2022-07-26T21:28:15.399Z,42.94
2022-07-26T21:30:42.867Z,42.74
2022-07-26T21:33:10.385Z,43.17
2022-07-26T21:35:37.855Z,43.08
2022-07-26T21:38:05.317Z,42.65
2022-07-26T21:40:32.743Z,42.60
2022-07-26T21:43:01.488Z,43.32
2022-07-26T21:45:28.958Z,42.69
2022-07-26T21:47:56.419Z,42.92
2022-07-26T21:50:23.874Z,43.14
2022-07-26T21:52:51.339Z,42.67
2022-07-26T21:55:18.790Z,42.74
2022-07-26T21:57:46.426Z,42.63
2022-07-26T22:00:16.279Z,42.68
2022-07-26T22:02:43.805Z,43.09
2022-07-26T22:05:31.889Z,43.03
2022-07-26T22:07:59.368Z,42.83
2022-07-26T22:10:26.821Z,42.57
2022-07-26T22:12:54.306Z,42.52
2022-07-26T22:15:23.048Z,43.19
2022-07-26T22:17:50.566Z,43.00
2022-07-26T22:20:18.078Z,43.01
2022-07-26T22:22:45.532Z,42.75
2022-07-26T22:25:13.352Z,42.75
2022-07-26T22:27:40.960Z,42.44
2022-07-26T22:30:09.252Z,42.68
2022-07-26T22:32:38.085Z,42.58
2022-07-26T22:35:06.301Z,42.65
2022-07-26T22:37:33.770Z,42.29
2022-07-26T22:40:01.261Z,42.45
2022-07-26T22:42:28.705Z,42.78
2022-07-26T22:44:56.271Z,42.23
2022-07-26T22:47:23.724Z,42.04
2022-07-26T22:49:52.479Z,41.84
2022-07-26T22:52:19.969Z,42.26
2022-07-26T22:54:47.425Z,42.34
2022-07-26T22:57:14.863Z,42.63
2022-07-26T22:59:42.325Z,42.23
2022-07-26T23:02:09.788Z,42.52
2022-07-26T23:04:37.228Z,43.15
2022-07-26T23:07:05.970Z,42.67
2022-07-26T23:09:33.422Z,42.90
2022-07-26T23:12:00.867Z,43.09
2022-07-26T23:14:28.316Z,42.94
2022-07-26T23:16:55.807Z,43.41
2022-07-26T23:19:23.293Z,43.19
2022-07-26T23:21:50.779Z,43.30
2022-07-26T23:24:19.518Z,43.15
2022-07-26T23:26:46.967Z,43.35
2022-07-26T23:29:14.792Z,43.39
2022-07-26T23:31:43.077Z,43.36
2022-07-26T23:34:10.557Z,43.35
2022-07-26T23:36:37.998Z,43.28
2022-07-26T23:39:05.576Z,43.29
2022-07-26T23:41:34.313Z,43.59
2022-07-26T23:44:01.898Z,43.14
2022-07-26T23:46:29.362Z,43.27
2022-07-26T23:48:58.396Z,43.34
2022-07-26T23:51:25.952Z,43.49
2022-07-26T23:53:53.394Z,43.60
2022-07-26T23:56:20.834Z,43.63
2022-07-26T23:58:49.643Z,43.77
